Time;durP1;ratioP1;P1;durP2;ratioP2;P2;SDS_P1;SDS_P2;PMS_P1;PMS_P2;Temp;Humidity;BMP_temperature;BMP_pressure;BME280_temperature;BME280_humidity;BME280_pressure;Samples;Min_cycle;Max_cycle;Signal;HPM_P1;HPM_P2
2020/12/08 00:02:22;;;;;;;83.95;43.75;;;;;;;2.21;100.00;99876.34;5062294;28;20514;-84
2020/12/08 00:04:48;;;;;;;84.95;43.38;;;;;;;2.20;100.00;99882.63;5055288;28;20037;-87
2020/12/08 00:07:13;;;;;;;79.03;44.58;;;;;;;2.23;100.00;99884.19;5050019;28;20510;-86
2020/12/08 00:09:39;;;;;;;79.78;44.40;;;;;;;2.20;100.00;99887.94;5042711;28;20498;-86
2020/12/08 00:12:06;;;;;;;78.85;43.80;;;;;;;2.22;100.00;99887.81;5048776;28;20033;-84
2020/12/08 00:14:33;;;;;;;76.40;43.08;;;;;;;2.21;100.00;99888.75;5065479;28;20061;-85
2020/12/08 00:16:59;;;;;;;78.18;42.15;;;;;;;2.21;100.00;99886.13;5066163;28;20048;-86
2020/12/08 00:19:24;;;;;;;77.57;43.85;;;;;;;2.21;100.00;99886.13;5059003;28;20498;-86
2020/12/08 00:21:50;;;;;;;72.78;41.90;;;;;;;2.23;100.00;99889.47;5050467;28;20065;-85
2020/12/08 00:24:15;;;;;;;75.30;41.13;;;;;;;2.20;100.00;99882.63;5033839;28;20114;-85
2020/12/08 00:26:41;;;;;;;72.55;43.05;;;;;;;2.23;100.00;99881.53;5049007;28;20040;-83
2020/12/08 00:29:08;;;;;;;76.72;41.60;;;;;;;2.22;100.00;99870.13;5049647;28;20511;-86
2020/12/08 00:31:35;;;;;;;70.90;39.17;;;;;;;2.22;100.00;99875.41;5045723;28;20040;-84
2020/12/08 00:34:01;;;;;;;62.53;34.30;;;;;;;2.18;100.00;99873.97;5039530;28;20053;-85
2020/12/08 00:36:26;;;;;;;66.32;38.28;;;;;;;2.22;100.00;99869.28;5047747;28;20048;-86
2020/12/08 00:38:52;;;;;;;64.53;36.92;;;;;;;2.18;100.00;99873.16;5032246;28;20049;-84
2020/12/08 00:41:19;;;;;;;62.83;37.35;;;;;;;2.15;100.00;99876.91;5035989;28;20064;-86
2020/12/08 00:43:46;;;;;;;61.03;36.53;;;;;;;2.09;100.00;99873.94;5047634;28;20511;-87
2020/12/08 00:46:16;;;;;;;65.35;37.03;;;;;;;2.05;100.00;99876.03;5049843;28;20056;-84
2020/12/08 00:48:44;;;;;;;62.33;35.80;;;;;;;2.01;100.00;99879.88;5047192;28;20036;-83
2020/12/08 00:51:11;;;;;;;60.97;37.40;;;;;;;1.98;100.00;99875.69;5049311;28;20040;-85
2020/12/08 00:53:38;;;;;;;66.80;35.50;;;;;;;1.91;100.00;99874.56;5038971;28;20504;-83
2020/12/08 00:56:12;;;;;;;60.10;34.67;;;;;;;1.90;100.00;99875.53;5064127;28;20045;-85
2020/12/08 00:58:37;;;;;;;62.17;35.83;;;;;;;1.92;100.00;99876.22;5050737;28;20110;-86
2020/12/08 01:01:08;;;;;;;59.30;36.00;;;;;;;1.90;100.00;99878.19;5046156;28;20487;-84
2020/12/08 01:03:35;;;;;;;60.67;35.47;;;;;;;1.83;100.00;99886.75;5042794;28;20060;-84
2020/12/08 01:06:01;;;;;;;56.28;34.20;;;;;;;1.75;100.00;99890.03;5050145;28;20517;-86
2020/12/08 01:08:27;;;;;;;61.45;35.90;;;;;;;1.72;100.00;99887.66;5052900;28;20045;-87
2020/12/08 01:10:53;;;;;;;64.85;37.28;;;;;;;1.71;100.00;99881.53;5047501;28;20033;-84
2020/12/08 01:13:21;;;;;;;64.95;37.40;;;;;;;1.66;100.00;99891.66;5034736;28;20055;-85
2020/12/08 01:15:50;;;;;;;59.90;36.65;;;;;;;1.65;100.00;99882.06;5037350;28;20099;-86
2020/12/08 01:18:15;;;;;;;61.65;36.90;;;;;;;1.60;100.00;99888.69;5045306;28;20140;-85
2020/12/08 01:20:41;;;;;;;61.28;36.55;;;;;;;1.54;100.00;99888.25;5047348;28;20124;-88
2020/12/08 01:23:07;;;;;;;63.67;36.05;;;;;;;1.49;100.00;99897.53;5031397;28;20055;-88
2020/12/08 01:25:33;;;;;;;64.13;37.05;;;;;;;1.45;100.00;99896.94;5047995;28;20172;-89
2020/12/08 01:27:59;;;;;;;67.50;36.47;;;;;;;1.41;100.00;99895.53;5048725;28;20543;-84
2020/12/08 01:30:25;;;;;;;67.18;39.10;;;;;;;1.40;100.00;99904.41;5043909;28;20110;-85
2020/12/08 01:32:51;;;;;;;62.90;38.20;;;;;;;1.37;100.00;99899.38;5048209;28;20053;-86
2020/12/08 01:35:17;;;;;;;64.72;37.20;;;;;;;1.31;100.00;99899.91;5033280;28;20037;-84
2020/12/08 01:37:47;;;;;;;67.68;36.65;;;;;;;1.25;100.00;99903.06;5044865;28;20033;-85
2020/12/08 01:40:14;;;;;;;70.57;38.90;;;;;;;1.21;100.00;99896.31;5046404;28;20045;-87
2020/12/08 01:42:42;;;;;;;72.93;39.78;;;;;;;1.15;100.00;99899.47;5046667;28;20043;-84
2020/12/08 01:45:08;;;;;;;70.45;39.10;;;;;;;1.09;100.00;99900.81;5048486;28;20040;-84
2020/12/08 01:47:34;;;;;;;71.20;41.25;;;;;;;1.01;100.00;99901.47;5044812;28;20037;-86
2020/12/08 01:50:00;;;;;;;79.00;41.38;;;;;;;0.97;100.00;99912.38;5048566;28;20049;-85
2020/12/08 01:52:26;;;;;;;77.47;40.65;;;;;;;0.92;100.00;99907.47;5046916;28;20133;-85
2020/12/08 01:54:53;;;;;;;74.97;39.30;;;;;;;0.87;100.00;99912.31;5042473;28;20128;-87
2020/12/08 01:57:18;;;;;;;74.00;40.22;;;;;;;0.84;100.00;99904.63;5042472;28;20380;-88
2020/12/08 01:59:44;;;;;;;71.22;39.75;;;;;;;0.82;100.00;99902.09;5048912;28;20044;-88
2020/12/08 02:02:09;;;;;;;72.10;38.53;;;;;;;0.76;100.00;99907.03;5047546;28;20046;-86
2020/12/08 02:04:36;;;;;;;75.38;40.80;;;;;;;0.77;100.00;99896.34;5027258;28;20095;-85
2020/12/08 02:07:02;;;;;;;74.75;42.65;;;;;;;0.84;100.00;99896.69;5034124;28;20040;-85
2020/12/08 02:09:27;;;;;;;68.80;39.10;;;;;;;0.87;100.00;99899.09;5053024;28;20552;-85
2020/12/08 02:11:53;;;;;;;70.22;39.05;;;;;;;0.86;100.00;99902.69;5041658;28;20041;-85
2020/12/08 02:14:18;;;;;;;68.97;39.50;;;;;;;0.88;100.00;99908.69;5043764;28;20037;-85
2020/12/08 02:16:43;;;;;;;68.60;39.72;;;;;;;0.94;100.00;99902.06;5038619;28;20045;-86
2020/12/08 02:19:09;;;;;;;65.90;35.90;;;;;;;0.92;100.00;99912.75;5047037;28;20041;-87
2020/12/08 02:21:34;;;;;;;62.08;35.42;;;;;;;0.93;100.00;99917.09;5056184;28;20049;-87
2020/12/08 02:24:01;;;;;;;62.60;35.85;;;;;;;0.96;100.00;99914.19;5038800;28;20048;-85
2020/12/08 02:26:27;;;;;;;63.00;35.85;;;;;;;0.93;100.00;99909.16;5044268;28;20041;-83
2020/12/08 02:28:53;;;;;;;59.95;35.72;;;;;;;0.97;100.00;99910.56;5028771;28;20080;-86
2020/12/08 02:31:19;;;;;;;56.25;33.33;;;;;;;0.98;100.00;99903.47;5029136;28;20025;-85
2020/12/08 02:33:51;;;;;;;66.95;38.15;;;;;;;1.00;100.00;99901.56;5031721;28;20038;-85
2020/12/08 02:36:16;;;;;;;56.83;33.83;;;;;;;1.04;100.00;99905.66;5026692;28;21834;-85
2020/12/08 02:38:41;;;;;;;58.85;35.33;;;;;;;0.92;100.00;99904.81;5052289;28;20094;-85
2020/12/08 02:41:07;;;;;;;58.88;34.58;;;;;;;0.88;100.00;99906.03;5048326;28;20124;-85
2020/12/08 02:43:33;;;;;;;59.15;34.85;;;;;;;0.85;100.00;99909.78;5042974;28;20095;-84
2020/12/08 02:45:58;;;;;;;57.60;34.97;;;;;;;0.81;100.00;99905.72;5043588;28;20523;-85
2020/12/08 02:48:24;;;;;;;60.00;34.28;;;;;;;0.81;100.00;99908.34;5030190;28;20045;-87
2020/12/08 02:50:49;;;;;;;58.30;33.58;;;;;;;0.79;100.00;99906.78;5058389;28;20037;-87
2020/12/08 02:53:15;;;;;;;60.33;36.03;;;;;;;0.79;100.00;99904.97;5046909;28;20094;-84
2020/12/08 02:55:44;;;;;;;55.08;33.50;;;;;;;0.81;100.00;99912.78;5036502;28;20118;-84
2020/12/08 02:58:09;;;;;;;61.35;34.95;;;;;;;0.82;100.00;99914.47;5047415;28;20037;-86
2020/12/08 03:00:35;;;;;;;59.58;36.05;;;;;;;0.80;100.00;99916.38;5045090;28;20044;-84
2020/12/08 03:03:00;;;;;;;57.10;35.08;;;;;;;0.77;100.00;99920.09;5009938;28;20045;-87
2020/12/08 03:05:25;;;;;;;62.05;36.80;;;;;;;0.76;100.00;99917.59;5021946;28;20041;-84
2020/12/08 03:07:51;;;;;;;66.15;35.97;;;;;;;0.75;100.00;99922.06;5030221;28;20038;-83
2020/12/08 03:10:16;;;;;;;62.78;35.85;;;;;;;0.72;100.00;99918.78;5042714;28;20091;-84
2020/12/08 03:12:43;;;;;;;64.53;38.70;;;;;;;0.70;100.00;99918.09;5040045;28;20128;-86
2020/12/08 03:15:08;;;;;;;67.68;38.05;;;;;;;0.69;100.00;99919.88;5047256;28;20037;-85
2020/12/08 03:17:34;;;;;;;67.88;38.90;;;;;;;0.71;100.00;99915.31;5043052;28;20056;-87
2020/12/08 03:20:00;;;;;;;70.95;38.03;;;;;;;0.72;100.00;99918.78;5016732;28;20057;-86
2020/12/08 03:22:25;;;;;;;61.10;36.88;;;;;;;0.72;100.00;99910.88;5045565;28;20509;-84
2020/12/08 03:24:51;;;;;;;64.63;36.63;;;;;;;0.72;100.00;99906.44;5047875;28;20051;-83
2020/12/08 03:27:17;;;;;;;66.05;37.40;;;;;;;0.77;100.00;99906.91;5048143;28;20043;-84
2020/12/08 03:29:43;;;;;;;65.57;37.95;;;;;;;0.80;100.00;99906.66;5044940;28;20033;-87
2020/12/08 03:32:09;;;;;;;59.05;36.10;;;;;;;0.83;100.00;99898.47;5060236;28;20045;-87
2020/12/08 03:34:34;;;;;;;61.42;37.15;;;;;;;0.82;100.00;99899.44;5063942;28;20052;-83
2020/12/08 03:36:59;;;;;;;62.67;36.40;;;;;;;0.81;100.00;99896.94;5031636;28;20090;-85
2020/12/08 03:39:25;;;;;;;61.67;36.58;;;;;;;0.79;100.00;99896.22;5048245;28;20479;-85
2020/12/08 03:41:51;;;;;;;60.42;36.45;;;;;;;0.76;100.00;99899.13;5048813;28;20049;-85
2020/12/08 03:44:16;;;;;;;66.07;37.28;;;;;;;0.74;100.00;99887.81;5062936;28;20067;-84
2020/12/08 03:46:41;;;;;;;63.83;36.25;;;;;;;0.72;100.00;99892.38;5041893;28;20123;-85
2020/12/08 03:49:07;;;;;;;62.10;37.10;;;;;;;0.67;100.00;99890.97;5016255;28;20033;-88
2020/12/08 03:51:32;;;;;;;59.58;37.05;;;;;;;0.64;100.00;99888.56;5022984;28;20044;-83
2020/12/08 03:53:58;;;;;;;67.20;36.92;;;;;;;0.62;100.00;99890.47;5020179;28;20042;-86
2020/12/08 03:56:23;;;;;;;70.32;38.47;;;;;;;0.61;100.00;99896.75;5033143;28;20056;-84
2020/12/08 03:58:49;;;;;;;64.00;37.35;;;;;;;0.55;100.00;99902.50;5046676;28;20040;-84
2020/12/08 04:01:20;;;;;;;67.63;37.90;;;;;;;0.53;100.00;99893.88;5033218;28;20037;-84
2020/12/08 04:03:50;;;;;;;65.68;35.85;;;;;;;0.44;100.00;99894.59;5041861;28;20122;-85
2020/12/08 04:06:18;;;;;;;70.75;38.33;;;;;;;0.40;100.00;99894.00;5055198;28;20052;-85
2020/12/08 04:08:46;;;;;;;69.47;37.78;;;;;;;0.31;100.00;99897.34;5041102;28;20503;-85
2020/12/08 04:11:15;;;;;;;71.25;38.58;;;;;;;0.28;100.00;99894.94;5041011;28;20052;-83
2020/12/08 04:13:42;;;;;;;71.28;37.78;;;;;;;0.24;100.00;99900.59;5039274;28;22241;-85
2020/12/08 04:16:14;;;;;;;71.47;39.40;;;;;;;0.23;100.00;99907.66;5047507;28;20117;-85
2020/12/08 04:18:40;;;;;;;79.28;41.95;;;;;;;0.29;100.00;99904.56;5049579;28;20052;-83
2020/12/08 04:21:07;;;;;;;73.63;40.83;;;;;;;0.32;100.00;99906.97;5047454;28;20440;-88
2020/12/08 04:23:32;;;;;;;74.25;42.13;;;;;;;0.37;100.00;99910.06;5037320;28;20408;-84
2020/12/08 04:26:05;;;;;;;81.53;41.53;;;;;;;0.36;100.00;99907.56;5062184;28;20032;-86
2020/12/08 04:28:31;;;;;;;74.88;41.40;;;;;;;0.34;100.00;99918.22;5040852;28;20050;-86
2020/12/08 04:30:58;;;;;;;81.88;41.58;;;;;;;0.35;100.00;99912.00;5058927;28;20519;-86
2020/12/08 04:33:23;;;;;;;75.15;41.72;;;;;;;0.38;100.00;99909.13;5048221;28;20098;-84
2020/12/08 04:35:49;;;;;;;78.97;43.58;;;;;;;0.41;100.00;99915.97;5050762;28;20044;-83
2020/12/08 04:38:14;;;;;;;80.35;41.17;;;;;;;0.44;100.00;99913.06;5034890;28;20377;-87
2020/12/08 04:40:39;;;;;;;80.07;43.25;;;;;;;0.50;100.00;99917.88;5051121;28;20140;-86
2020/12/08 04:43:08;;;;;;;74.45;41.65;;;;;;;0.57;100.00;99926.97;5066327;28;20395;-85
2020/12/08 04:45:33;;;;;;;71.23;41.50;;;;;;;0.61;100.00;99928.41;5057346;28;20072;-85
2020/12/08 04:48:05;;;;;;;76.32;42.25;;;;;;;0.66;100.00;99930.69;5065201;28;20286;-87
2020/12/08 04:50:32;;;;;;;77.22;43.35;;;;;;;0.67;100.00;99925.28;5042035;28;20114;-85
2020/12/08 04:52:58;;;;;;;72.18;40.95;;;;;;;0.73;100.00;99925.78;5048265;28;20131;-84
2020/12/08 04:55:23;;;;;;;74.63;41.45;;;;;;;0.73;100.00;99923.97;5040318;28;20133;-86
2020/12/08 04:57:49;;;;;;;70.72;40.17;;;;;;;0.72;100.00;99929.34;5028281;28;20038;-86
2020/12/08 05:00:15;;;;;;;74.28;40.97;;;;;;;0.78;100.00;99929.72;5032696;28;20505;-82
2020/12/08 05:02:54;;;;;;;72.13;42.80;;;;;;;0.79;100.00;99933.19;5009195;28;20041;-86
2020/12/08 05:05:22;;;;;;;68.00;40.47;;;;;;;0.80;100.00;99932.22;5038955;28;20129;-84
2020/12/08 05:07:49;;;;;;;68.55;39.50;;;;;;;0.80;100.00;99937.50;5041681;28;20095;-84
2020/12/08 05:10:28;;;;;;;74.00;39.13;;;;;;;0.78;100.00;99939.47;5036424;28;20675;-83
2020/12/08 05:12:59;;;;;;;70.72;40.65;;;;;;;0.81;100.00;99936.56;5014118;28;20564;-85
2020/12/08 05:15:25;;;;;;;76.35;41.35;;;;;;;0.83;100.00;99931.97;5015217;28;20535;-85
2020/12/08 05:17:50;;;;;;;67.55;40.13;;;;;;;0.87;100.00;99928.97;5010945;28;20136;-84
2020/12/08 05:20:18;;;;;;;75.68;42.67;;;;;;;0.89;100.00;99926.19;5012662;28;20037;-84
2020/12/08 05:22:56;;;;;;;72.70;41.63;;;;;;;0.88;100.00;99929.81;5040406;28;20041;-83
2020/12/08 05:25:30;;;;;;;70.97;39.17;;;;;;;0.90;100.00;99928.72;5043214;28;20049;-85
2020/12/08 05:27:59;;;;;;;75.10;42.53;;;;;;;0.91;100.00;99932.22;5035525;28;20038;-82
2020/12/08 05:30:27;;;;;;;74.00;40.85;;;;;;;0.94;100.00;99944.34;5034374;28;20135;-83
2020/12/08 05:33:04;;;;;;;71.45;39.80;;;;;;;0.93;100.00;99938.22;5028955;28;20128;-85
2020/12/08 05:35:34;;;;;;;68.85;40.67;;;;;;;0.99;100.00;99943.00;5020019;28;20036;-84
2020/12/08 05:38:03;;;;;;;72.72;40.15;;;;;;;1.04;100.00;99937.38;5046427;28;20495;-84
2020/12/08 05:40:29;;;;;;;70.38;39.92;;;;;;;1.05;100.00;99937.22;5026402;28;20056;-84
2020/12/08 05:42:56;;;;;;;68.55;39.45;;;;;;;1.04;100.00;99934.72;5011928;28;20402;-82
2020/12/08 05:45:24;;;;;;;64.38;38.03;;;;;;;1.03;100.00;99939.13;5035106;28;20058;-83
2020/12/08 05:47:54;;;;;;;73.72;41.65;;;;;;;1.02;100.00;99944.56;5019810;28;20049;-84
2020/12/08 05:50:21;;;;;;;74.32;40.65;;;;;;;1.03;100.00;99936.50;5028606;28;20496;-84
2020/12/08 05:52:53;;;;;;;74.07;40.42;;;;;;;1.05;100.00;99945.16;5011162;28;20056;-86
2020/12/08 05:55:28;;;;;;;72.60;39.90;;;;;;;1.10;100.00;99948.25;5039598;28;20038;-86
2020/12/08 05:58:06;;;;;;;70.15;39.55;;;;;;;1.08;100.00;99942.25;5024233;28;21426;-86
2020/12/08 06:00:32;;;;;;;76.35;43.80;;;;;;;1.09;100.00;99943.97;5051308;28;20112;-84
2020/12/08 06:03:17;;;;;;;73.65;41.35;;;;;;;1.09;100.00;99946.59;5043131;28;20133;-83
2020/12/08 06:05:45;;;;;;;77.07;41.47;;;;;;;1.10;100.00;99945.63;5039472;28;20041;-86
2020/12/08 06:08:21;;;;;;;65.65;39.25;;;;;;;1.13;100.00;99955.09;5040224;28;20048;-85
2020/12/08 06:10:49;;;;;;;68.57;39.50;;;;;;;1.11;100.00;99951.75;5041272;28;20519;-85
2020/12/08 06:13:26;;;;;;;71.32;38.45;;;;;;;1.13;100.00;99960.41;5040891;28;20064;-85
2020/12/08 06:15:53;;;;;;;70.68;40.95;;;;;;;1.17;100.00;99956.53;5043975;28;20052;-84
2020/12/08 06:18:29;;;;;;;67.60;40.88;;;;;;;1.18;100.00;99960.88;5044537;28;20037;-84
2020/12/08 06:20:54;;;;;;;71.53;39.47;;;;;;;1.20;100.00;99955.44;5057194;28;20053;-84
2020/12/08 06:23:20;;;;;;;76.32;41.17;;;;;;;1.18;100.00;99957.38;5050507;28;20065;-86
2020/12/08 06:25:45;;;;;;;74.82;41.55;;;;;;;1.22;100.00;99961.44;5030951;28;20037;-85
2020/12/08 06:28:10;;;;;;;72.00;40.72;;;;;;;1.22;100.00;99958.81;5057193;28;20040;-85
2020/12/08 06:30:38;;;;;;;78.15;45.08;;;;;;;1.24;100.00;99968.28;5044891;28;20046;-84
2020/12/08 06:33:04;;;;;;;80.43;43.03;;;;;;;1.25;100.00;99964.69;5036138;28;20037;-82
2020/12/08 06:35:33;;;;;;;75.07;40.70;;;;;;;1.26;100.00;99966.34;5057001;28;20078;-85
2020/12/08 06:37:59;;;;;;;;;;;;;;;1.27;100.00;99964.56;5060520;28;20048;-83
2020/12/08 06:40:25;;;;;;;77.43;45.13;;;;;;;1.20;100.00;99966.84;5041534;28;19924;-84
2020/12/08 06:42:52;;;;;;;82.40;48.58;;;;;;;1.23;100.00;99966.59;5047293;28;20194;-82
2020/12/08 06:45:25;;;;;;;79.20;44.67;;;;;;;1.26;100.00;99976.09;5029144;28;20040;-85
2020/12/08 06:47:51;;;;;;;79.47;43.33;;;;;;;1.28;100.00;99975.00;5040020;28;20044;-82
2020/12/08 06:50:28;;;;;;;76.85;43.67;;;;;;;1.30;100.00;99973.09;5035889;28;20069;-84
2020/12/08 06:53:01;;;;;;;74.63;43.05;;;;;;;1.33;100.00;99977.28;5045428;28;20041;-84
2020/12/08 06:55:28;;;;;;;83.65;46.33;;;;;;;1.37;100.00;99973.41;5040496;28;20491;-84
2020/12/08 06:58:03;;;;;;;83.82;44.70;;;;;;;1.38;100.00;99972.44;5026752;28;20044;-83
2020/12/08 07:00:29;;;;;;;80.25;43.85;;;;;;;1.37;100.00;99960.19;5032118;28;20535;-85
2020/12/08 07:02:55;;;;;;;75.82;42.90;;;;;;;1.38;100.00;99967.16;5013147;28;20187;-85
2020/12/08 07:05:31;;;;;;;83.03;44.85;;;;;;;1.39;100.00;99974.13;5041529;28;20043;-85
2020/12/08 07:08:01;;;;;;;82.40;44.45;;;;;;;1.40;100.00;99982.91;5028008;28;20390;-84
2020/12/08 07:10:27;;;;;;;76.70;42.47;;;;;;;1.43;100.00;99982.66;5019869;28;20125;-85
2020/12/08 07:12:53;;;;;;;86.03;45.60;;;;;;;1.46;100.00;99983.22;5043534;28;20068;-85
2020/12/08 07:15:24;;;;;;;86.18;45.30;;;;;;;1.48;100.00;99977.81;5032774;28;20030;-85
2020/12/08 07:17:54;;;;;;;77.47;44.65;;;;;;;1.44;100.00;99986.97;5027192;28;20042;-86
2020/12/08 07:20:20;;;;;;;84.38;44.33;;;;;;;1.45;100.00;99994.78;5053648;28;20064;-84
2020/12/08 07:22:46;;;;;;;89.13;45.30;;;;;;;1.46;100.00;99993.81;5059547;28;20061;-84
2020/12/08 07:25:13;;;;;;;81.78;43.30;;;;;;;1.45;100.00;99996.59;5037812;28;20056;-85
2020/12/08 07:27:53;;;;;;;79.43;44.50;;;;;;;1.46;100.00;99996.44;5052262;28;20033;-83
2020/12/08 07:30:24;;;;;;;80.43;43.10;;;;;;;1.45;100.00;100002.72;5016729;28;20057;-86
2020/12/08 07:32:51;;;;;;;80.38;42.95;;;;;;;1.47;100.00;100008.72;5043127;28;20102;-87
2020/12/08 07:35:37;;;;;;;78.63;42.50;;;;;;;1.47;100.00;100007.88;5035451;28;20093;-86
2020/12/08 07:38:04;;;;;;;82.00;43.70;;;;;;;1.46;100.00;100004.38;5021869;28;20044;-86
2020/12/08 07:40:35;;;;;;;86.10;45.17;;;;;;;1.48;100.00;100015.69;5043913;28;20038;-85
2020/12/08 07:43:02;;;;;;;77.88;43.83;;;;;;;1.50;100.00;100016.41;5032879;28;20046;-83
2020/12/08 07:45:28;;;;;;;83.88;44.13;;;;;;;1.50;100.00;100020.84;5048629;28;20048;-83
2020/12/08 07:47:59;;;;;;;82.70;43.80;;;;;;;1.52;100.00;100019.75;5028226;28;20033;-86
2020/12/08 07:50:29;;;;;;;91.60;45.70;;;;;;;1.54;100.00;100023.09;5030718;28;20120;-84
2020/12/08 07:52:55;;;;;;;85.35;44.38;;;;;;;1.57;100.00;100028.16;5053429;28;20075;-86
2020/12/08 07:55:20;;;;;;;87.65;44.13;;;;;;;1.56;100.00;100031.78;5049054;28;20044;-83
2020/12/08 07:57:46;;;;;;;83.18;45.08;;;;;;;1.59;100.00;100028.03;5047942;28;20394;-84
2020/12/08 08:00:11;;;;;;;84.25;44.30;;;;;;;1.58;100.00;100026.34;5033892;28;20136;-84
2020/12/08 08:02:36;;;;;;;89.93;45.50;;;;;;;1.59;100.00;100020.09;5050031;28;20106;-84
2020/12/08 08:05:02;;;;;;;86.28;45.30;;;;;;;1.60;100.00;100027.06;5035572;28;20049;-85
2020/12/08 08:07:27;;;;;;;89.30;44.72;;;;;;;1.60;100.00;100026.22;5043288;28;20052;-84
2020/12/08 08:09:53;;;;;;;88.45;45.67;;;;;;;1.57;100.00;100033.44;5012335;28;20048;-86
2020/12/08 08:12:18;;;;;;;94.32;45.50;;;;;;;1.61;100.00;100033.19;5035755;28;20056;-84
2020/12/08 08:14:43;;;;;;;91.22;45.42;;;;;;;1.62;100.00;100030.44;5007945;28;20551;-85
2020/12/08 08:17:09;;;;;;;95.78;45.40;;;;;;;1.65;100.00;100032.81;5038091;28;20045;-84
2020/12/08 08:19:34;;;;;;;91.18;45.35;;;;;;;1.65;100.00;100034.63;5049312;28;20037;-85
2020/12/08 08:22:01;;;;;;;94.82;46.63;;;;;;;1.69;100.00;100030.75;5051259;28;20103;-85
2020/12/08 08:24:27;;;;;;;94.40;46.72;;;;;;;1.71;100.00;100029.66;5051352;28;20052;-85
2020/12/08 08:26:52;;;;;;;95.07;46.28;;;;;;;1.71;100.00;100034.13;5053535;28;20114;-85
2020/12/08 08:29:17;;;;;;;94.78;47.10;;;;;;;1.71;100.00;100031.47;5051220;28;20045;-83
2020/12/08 08:31:43;;;;;;;93.00;45.08;;;;;;;1.73;100.00;100033.03;5034150;28;20065;-84
2020/12/08 08:34:08;;;;;;;93.13;46.47;;;;;;;1.73;100.00;100033.03;5032078;28;20061;-84
2020/12/08 08:36:33;;;;;;;98.78;44.67;;;;;;;1.75;100.00;100030.25;5050644;28;20033;-83
2020/12/08 08:38:59;;;;;;;94.15;45.72;;;;;;;1.78;100.00;100043.22;5036545;28;20378;-85
2020/12/08 08:41:24;;;;;;;97.85;46.65;;;;;;;1.76;100.00;100042.53;5055566;28;20049;-83
2020/12/08 08:43:50;;;;;;;103.90;46.22;;;;;;;1.79;100.00;100039.63;5029272;28;20539;-85
2020/12/08 08:46:16;;;;;;;100.93;49.60;;;;;;;1.83;100.00;100038.41;5043921;28;20041;-86
2020/12/08 08:48:42;;;;;;;90.50;45.63;;;;;;;1.82;100.00;100042.03;5038032;28;20051;-85
2020/12/08 08:51:08;;;;;;;91.57;45.33;;;;;;;1.83;100.00;100043.69;5055096;28;21021;-86
2020/12/08 08:53:35;;;;;;;101.75;47.13;;;;;;;1.86;100.00;100042.59;5044596;28;20041;-85
2020/12/08 08:56:02;;;;;;;97.25;46.33;;;;;;;1.87;100.00;100045.13;5042404;28;20052;-84
2020/12/08 08:58:27;;;;;;;92.35;46.08;;;;;;;1.89;100.00;100045.81;5054645;28;20087;-84
2020/12/08 09:00:52;;;;;;;92.13;43.75;;;;;;;1.90;100.00;100044.00;5024519;28;20049;-84
2020/12/08 09:03:18;;;;;;;99.68;46.90;;;;;;;1.92;100.00;100039.44;5033426;28;20037;-84
2020/12/08 09:05:43;;;;;;;101.30;49.13;;;;;;;1.94;100.00;100035.72;5040954;28;20049;-83
2020/12/08 09:08:09;;;;;;;99.43;48.63;;;;;;;1.96;100.00;100044.38;5044167;28;20128;-86
2020/12/08 09:10:35;;;;;;;99.15;46.40;;;;;;;1.96;100.00;100044.38;5038110;28;20052;-84
2020/12/08 09:13:01;;;;;;;97.68;47.50;;;;;;;1.99;100.00;100044.09;5025488;28;20656;-85
2020/12/08 09:15:29;;;;;;;100.70;48.03;;;;;;;2.02;100.00;100053.59;5017786;28;20046;-84
2020/12/08 09:17:54;;;;;;;103.53;49.72;;;;;;;2.04;100.00;100046.34;5022256;28;20133;-83
2020/12/08 09:20:21;;;;;;;103.13;48.45;;;;;;;2.08;100.00;100050.44;5028018;28;20068;-84
2020/12/08 09:22:47;;;;;;;101.18;47.72;;;;;;;2.10;100.00;100052.94;5023346;28;20049;-84
2020/12/08 09:25:13;;;;;;;95.63;45.97;;;;;;;2.12;100.00;100058.97;5022612;28;20557;-86
2020/12/08 09:27:41;;;;;;;103.25;47.92;;;;;;;2.16;100.00;100055.94;5043082;28;20038;-86
2020/12/08 09:30:06;;;;;;;94.38;46.40;;;;;;;2.17;100.00;100062.91;5027296;28;20044;-86
2020/12/08 09:32:32;;;;;;;92.85;45.65;;;;;;;2.20;100.00;100061.81;5047272;28;20133;-85
2020/12/08 09:34:57;;;;;;;97.03;48.30;;;;;;;2.21;100.00;100060.84;5047629;28;20438;-83
2020/12/08 09:37:24;;;;;;;97.40;47.53;;;;;;;2.23;100.00;100050.97;5051640;28;20060;-86
2020/12/08 09:39:51;;;;;;;106.72;49.17;;;;;;;2.25;100.00;100056.97;5049960;28;20087;-84
2020/12/08 09:42:17;;;;;;;91.85;45.33;;;;;;;2.30;100.00;100056.56;5047379;28;20117;-85
2020/12/08 09:44:45;;;;;;;95.97;45.08;;;;;;;2.32;100.00;100062.59;5049916;28;20459;-84
2020/12/08 09:47:11;;;;;;;94.03;47.53;;;;;;;2.39;100.00;100058.47;5033861;28;20144;-85
2020/12/08 09:49:36;;;;;;;97.38;48.50;;;;;;;2.41;100.00;100065.28;5020213;28;20613;-84
2020/12/08 09:52:03;;;;;;;94.20;46.35;;;;;;;2.45;100.00;100064.09;5004659;28;20128;-86
2020/12/08 09:54:28;;;;;;;88.88;44.55;;;;;;;2.49;100.00;100068.13;5018347;28;20060;-84
2020/12/08 09:56:53;;;;;;;87.13;44.10;;;;;;;2.50;100.00;100068.97;4992744;28;20041;-84
2020/12/08 09:59:19;;;;;;;89.25;44.22;;;;;;;2.54;100.00;100058.97;5025692;28;20132;-84
2020/12/08 10:01:57;;;;;;;88.05;43.50;;;;;;;2.56;100.00;100060.53;5020718;28;20069;-86
2020/12/08 10:04:22;;;;;;;89.60;44.17;;;;;;;2.59;100.00;100064.69;4989210;28;20400;-85
2020/12/08 10:06:50;;;;;;;84.53;43.90;;;;;;;2.62;100.00;100072.41;5019171;28;20100;-85
2020/12/08 10:09:15;;;;;;;77.40;40.58;;;;;;;2.62;100.00;100065.28;5005945;28;20042;-85
2020/12/08 10:11:42;;;;;;;81.53;43.58;;;;;;;2.65;100.00;100066.84;5019768;28;20041;-84
2020/12/08 10:14:07;;;;;;;81.65;40.45;;;;;;;2.64;100.00;100075.75;5020098;28;20500;-84
2020/12/08 10:16:34;;;;;;;81.05;41.30;;;;;;;2.69;100.00;100074.38;5034303;28;20040;-83
2020/12/08 10:19:00;;;;;;;80.45;40.47;;;;;;;2.73;100.00;100074.97;5050720;28;20049;-84
2020/12/08 10:21:25;;;;;;;74.00;39.28;;;;;;;2.72;100.00;100071.47;5056993;28;20044;-85
2020/12/08 10:23:51;;;;;;;79.10;41.65;;;;;;;2.76;100.00;100068.56;5018780;28;20045;-86
2020/12/08 10:26:18;;;;;;;84.25;41.50;;;;;;;2.74;100.00;100063.41;5050431;28;20133;-84
2020/12/08 10:28:43;;;;;;;78.35;40.00;;;;;;;2.79;100.00;100073.59;5037021;28;20047;-85
2020/12/08 10:31:09;;;;;;;77.68;40.42;;;;;;;2.79;100.00;100070.94;5032782;28;20045;-84
2020/12/08 10:33:35;;;;;;;76.65;41.28;;;;;;;2.83;100.00;100062.59;5033999;28;20094;-85
2020/12/08 10:36:01;;;;;;;84.53;41.72;;;;;;;2.88;100.00;100068.34;5045862;28;20045;-85
2020/12/08 10:38:29;;;;;;;88.03;42.97;;;;;;;2.94;100.00;100067.81;5030172;28;20052;-86
2020/12/08 10:40:55;;;;;;;78.18;41.78;;;;;;;2.98;100.00;100057.78;5030986;28;20071;-85
2020/12/08 10:43:20;;;;;;;77.63;40.65;;;;;;;2.96;100.00;100066.84;5046870;28;20048;-84
2020/12/08 10:45:47;;;;;;;78.55;39.90;;;;;;;2.99;100.00;100075.34;5026821;28;20041;-85
2020/12/08 10:48:14;;;;;;;76.28;39.90;;;;;;;3.00;100.00;100071.75;5044146;28;20140;-84
2020/12/08 10:50:40;;;;;;;71.78;39.35;;;;;;;3.03;100.00;100070.66;5042037;28;20529;-85
2020/12/08 10:53:06;;;;;;;82.07;41.88;;;;;;;3.04;100.00;100073.16;5039108;28;20065;-85
2020/12/08 10:55:32;;;;;;;75.68;38.75;;;;;;;3.04;100.00;100074.97;5028233;28;20128;-85
2020/12/08 10:57:57;;;;;;;66.53;37.05;;;;;;;3.06;100.00;100076.53;5042455;28;20136;-86
2020/12/08 11:00:24;;;;;;;71.28;38.20;;;;;;;3.10;100.00;100077.09;5022980;28;20103;-85
2020/12/08 11:02:50;;;;;;;69.50;36.50;;;;;;;3.13;100.00;100074.16;5021082;28;20045;-83
2020/12/08 11:05:15;;;;;;;70.28;37.67;;;;;;;3.16;100.00;100068.59;5038407;28;20037;-84
2020/12/08 11:07:41;;;;;;;74.35;42.15;;;;;;;3.19;100.00;100064.84;5031805;28;20408;-85
2020/12/08 11:10:06;;;;;;;72.65;39.17;;;;;;;3.19;100.00;100060.38;5018342;28;20037;-84
2020/12/08 11:12:33;;;;;;;69.22;37.65;;;;;;;3.17;100.00;100065.81;5035789;28;20083;-86
2020/12/08 11:14:58;;;;;;;65.13;37.00;;;;;;;3.17;100.00;100057.03;5043855;28;20037;-86